Aérodrome :
LOGIN :

S'inscrire | Disclaimer

   EN    FR    IT 

 










Légende :    VFR   VFR Marginal   IFR   IFR Intensif   IFR Très Intensif
Visi : 
Plafond : 
>= 8 km
>= 3000ft
5 à 8 km
1000 à 3000 ft
1500m à 5 km
500 à 1000 ft
800 à 1500m
200 à 500 ft
< 800m
< 200 ft
Symboles :   Orages  Brouillard  Fortes neiges  Fortes précipitations  Vent > 20 kt
SIGMETs :   Divers  Orages  Givrage  Turbulence  Onde Orograph.  Cendres Volcan.







- Altitude de l'aérodrome : 364 ft
- Code IATA : FRA


EDDF - Frankfurt Int.

DERNIER METAR :
  • 251420Z 28008KT 220V310 CAVOK 11/M03 Q1008 NOSIG

METARs EXPIRÉS :
  • 251350Z 24008KT 210V270 9999 FEW040 SCT055 OVC090 10/00 Q1009 NOSIG
  • 251320Z 23009KT 200V260 9999 FEW040 SCT055 OVC090 11/01 Q1009 NOSIG
  • 251250Z 26008KT 210V300 9999 FEW040 SCT055 BKN150 10/01 Q1009 NOSIG
  • 251220Z 23011KT 9999 FEW040 BKN065 BKN150 09/00 Q1009 NOSIG
  • 251150Z 25008KT 200V300 9999 FEW040 BKN065 BKN150 09/M00 Q1009 NOSIG

TAF TAF EDDF
Valide du 25 à 12h jusqu'au 26 à 18h UTC


251100Z 2512/2618 29010KT 9999 SCT040
BECMG 2518/2521 28004KT
BECMG 2602/2605 36005KT
TEMPO 2602/2607 BKN030
Pas de NOTAMs connus pour ce terrain.



MET'MAP, la Météo Aéronautique d'un coup d'oeil ! - Copyright ORBIFLY Décembre 2007 - Disclaimer

ORBIFLY MET'MAP TEAM :

Programmation & Développement : Alexandra Zaïnal
Conception & Développement : Baudouin d'Aumeries
Co-Programmation & Développement : Marc-Olivier Méhu
Soutien technique & logistique : Manuel Goepfert

Contact : metmap@orbifly.com




SOURCES & CREDITS :

   NOAA